Lambton Shores, Canada
Current Conditions -  °F | °C
As of 12:00 AM on Saturday 22 Nov 2014 (Local Time) from CYZR Reporting Station
Overcast Overcast  
Wind Chill:   Ceiling: 14000
Heat Index: 21°   Visibility: 9mi
Dew Point: 16°   Wind: 12mph
Humidity: 80%   Direction: 200°SSW
Pressure: 30.32"   Gusts: NA
Location:  43.24°N, 81.87°W
Report Text: CYZR 220500Z AUTO 20010KT 9SM OVC140 M06/M09 A3032 RMK SLP278
Loading
Personal Weather Stations






























Interactive Weather Map New forecast layout! Learn more

10-Day Weather Forecast

Advertisements
Track Severe Weather on mobile